Time;durP1;ratioP1;P1;durP2;ratioP2;P2;SDS_P1;SDS_P2;PMS_P1;PMS_P2;Temp;Humidity;BMP_temperature;BMP_pressure;BME280_temperature;BME280_humidity;BME280_pressure;Samples;Min_cycle;Max_cycle;Signal;HPM_P1;HPM_P2
2023/10/05 00:03:43;;;;;;;6.70;1.90;;;15.70;99.90;;;;;;5072852;28;20040;-39
2023/10/05 00:06:23;;;;;;;5.88;1.20;;;15.60;99.90;;;;;;5069748;28;20056;-37
2023/10/05 00:08:52;;;;;;;10.73;1.63;;;15.60;99.90;;;;;;5065824;28;20040;-37
2023/10/05 00:11:24;;;;;;;2.47;1.05;;;15.60;99.90;;;;;;5069252;28;20032;-38
2023/10/05 00:13:51;;;;;;;11.68;1.83;;;15.50;99.90;;;;;;5069415;28;20024;-38
2023/10/05 00:16:22;;;;;;;6.70;1.15;;;15.50;99.90;;;;;;5072108;28;20576;-38
2023/10/05 00:18:49;;;;;;;9.98;1.85;;;15.50;99.90;;;;;;5064711;28;20020;-41
2023/10/05 00:21:19;;;;;;;4.97;1.05;;;15.50;99.90;;;;;;5071427;28;20366;-39
2023/10/05 00:23:49;;;;;;;8.73;2.03;;;15.60;99.90;;;;;;5071105;28;20031;-37
2023/10/05 00:26:15;;;;;;;7.32;1.48;;;15.60;99.90;;;;;;5070974;28;20485;-41
2023/10/05 00:28:47;;;;;;;10.82;1.33;;;15.60;99.90;;;;;;5072605;28;20095;-36
2023/10/05 00:31:23;;;;;;;9.60;1.83;;;15.60;99.90;;;;;;5071412;28;20446;-37
2023/10/05 00:33:55;;;;;;;3.55;1.60;;;15.60;99.90;;;;;;5070757;28;20412;-37
2023/10/05 00:36:21;;;;;;;4.10;0.93;;;15.60;99.90;;;;;;5058893;28;20025;-37
2023/10/05 00:38:47;;;;;;;7.57;1.30;;;15.60;99.90;;;;;;5072847;28;20492;-37
2023/10/05 00:41:13;;;;;;;4.60;1.05;;;15.60;99.90;;;;;;5074339;28;20025;-38
2023/10/05 00:43:40;;;;;;;5.15;1.17;;;15.60;99.90;;;;;;5076216;28;20108;-37
2023/10/05 00:46:07;;;;;;;5.22;1.20;;;15.60;99.90;;;;;;5074910;28;20024;-37
2023/10/05 00:48:35;;;;;;;4.10;1.00;;;15.60;99.90;;;;;;5075510;28;20035;-38
2023/10/05 00:51:26;;;;;;;5.97;1.00;;;15.60;99.90;;;;;;5074859;28;20067;-42
2023/10/05 00:53:49;;;;;;;9.13;1.38;;;15.60;99.90;;;;;;5075410;28;20068;-38
2023/10/05 00:56:15;;;;;;;3.72;1.50;;;15.70;99.90;;;;;;5074819;28;20048;-39
2023/10/05 00:58:44;;;;;;;7.15;1.27;;;15.70;99.90;;;;;;5075400;28;20025;-37
2023/10/05 01:01:26;;;;;;;7.35;1.30;;;15.70;99.90;;;;;;5075522;28;20027;-37
2023/10/05 01:06:41;;;;;;;6.28;1.70;;;15.70;99.90;;;;;;5073543;28;20077;-37
2023/10/05 01:09:33;;;;;;;1.77;1.17;;;15.70;99.90;;;;;;5073682;28;20028;-37
2023/10/05 01:12:45;;;;;;;6.82;1.45;;;15.60;99.90;;;;;;5074986;28;20451;-37
2023/10/05 01:14:54;;;;;;;3.80;1.05;;;15.60;99.90;;;;;;5074676;28;20036;-37
2023/10/05 01:17:20;;;;;;;6.32;1.10;;;15.60;99.90;;;;;;5075149;28;20048;-37
2023/10/05 01:19:53;;;;;;;3.60;0.73;;;15.60;99.90;;;;;;5074267;28;20062;-38
2023/10/05 01:22:21;;;;;;;6.13;1.40;;;15.60;99.90;;;;;;5075464;28;20032;-38
2023/10/05 01:24:48;;;;;;;4.72;0.75;;;15.60;99.90;;;;;;5075122;28;20033;-39
2023/10/05 01:27:14;;;;;;;5.57;1.20;;;15.60;99.90;;;;;;5075174;28;20543;-37
2023/10/05 01:29:40;;;;;;;6.25;1.27;;;15.60;99.90;;;;;;5072755;28;20178;-37
2023/10/05 01:32:07;;;;;;;6.85;1.10;;;15.60;99.90;;;;;;5074981;28;20031;-38
2023/10/05 01:34:33;;;;;;;4.15;0.88;;;15.60;99.90;;;;;;5072482;28;20036;-37
2023/10/05 01:36:58;;;;;;;5.95;1.83;;;15.60;99.90;;;;;;5074960;28;20025;-39
2023/10/05 01:39:26;;;;;;;6.85;1.73;;;15.60;99.90;;;;;;5074371;28;20442;-37
2023/10/05 01:41:51;;;;;;;9.48;1.25;;;15.60;99.90;;;;;;5074937;28;20025;-38
2023/10/05 01:44:17;;;;;;;8.88;1.42;;;15.60;99.90;;;;;;5074801;28;20384;-39
2023/10/05 01:46:44;;;;;;;6.65;1.40;;;15.60;99.90;;;;;;5075029;28;20021;-39
2023/10/05 01:49:10;;;;;;;7.23;1.63;;;15.60;99.90;;;;;;5073285;28;20392;-41
2023/10/05 01:51:35;;;;;;;7.57;1.40;;;15.60;99.90;;;;;;5073607;28;20025;-39
2023/10/05 01:54:11;;;;;;;6.35;1.60;;;15.60;99.90;;;;;;5074525;28;20031;-38
2023/10/05 01:56:39;;;;;;;4.18;1.33;;;15.60;99.90;;;;;;5074837;28;20056;-38
2023/10/05 01:59:06;;;;;;;3.22;1.42;;;15.60;99.90;;;;;;5073618;28;20051;-40
2023/10/05 02:01:40;;;;;;;6.32;1.20;;;15.60;99.90;;;;;;5074803;28;20017;-39
2023/10/05 02:04:10;;;;;;;5.10;1.20;;;15.60;99.90;;;;;;5073229;28;20028;-38
2023/10/05 02:06:40;;;;;;;4.60;1.33;;;15.50;99.90;;;;;;5073580;28;20033;-38
2023/10/05 02:09:10;;;;;;;5.35;1.80;;;15.50;99.90;;;;;;5074134;28;20056;-42
2023/10/05 02:11:36;;;;;;;6.07;1.50;;;15.50;99.90;;;;;;5074283;28;20389;-38
2023/10/05 02:14:06;;;;;;;7.68;1.20;;;15.50;99.90;;;;;;5073994;28;20021;-38
2023/10/05 02:16:32;;;;;;;2.92;1.42;;;15.50;99.90;;;;;;5073122;28;20040;-41
2023/10/05 02:19:02;;;;;;;2.90;1.20;;;15.50;99.90;;;;;;5072764;28;20025;-38
2023/10/05 02:21:30;;;;;;;4.68;1.13;;;15.50;99.90;;;;;;5073971;28;20515;-37
2023/10/05 02:24:10;;;;;;;3.55;1.20;;;15.50;99.90;;;;;;5073751;28;20424;-40
2023/10/05 02:26:39;;;;;;;11.73;1.42;;;15.50;99.90;;;;;;5073230;28;20541;-37
2023/10/05 02:29:13;;;;;;;4.30;1.10;;;15.50;99.90;;;;;;5073915;28;20066;-37
2023/10/05 02:34:44;;;;;;;;;;;15.50;99.90;;;;;;5074193;28;20055;-39
2023/10/05 02:37:11;;;;;;;4.53;1.70;;;15.50;99.90;;;;;;5073741;28;19909;-39
2023/10/05 02:39:41;;;;;;;9.80;1.77;;;15.50;99.90;;;;;;5073476;28;20031;-38
2023/10/05 02:42:15;;;;;;;7.68;1.98;;;15.50;99.90;;;;;;5072671;28;20024;-40
2023/10/05 02:44:41;;;;;;;6.78;1.35;;;15.50;99.90;;;;;;5073071;28;20024;-37
2023/10/05 02:47:11;;;;;;;11.75;2.05;;;15.50;99.90;;;;;;5073560;28;20060;-37
2023/10/05 02:49:40;;;;;;;9.00;1.50;;;15.50;99.90;;;;;;5073094;28;20032;-41
2023/10/05 02:52:06;;;;;;;4.32;1.45;;;15.40;99.90;;;;;;5073450;28;20385;-38
2023/10/05 02:54:32;;;;;;;3.08;1.27;;;15.40;99.90;;;;;;5073350;28;20027;-39
2023/10/05 02:56:58;;;;;;;3.78;1.73;;;15.40;99.90;;;;;;5073343;28;20431;-37
2023/10/05 02:59:27;;;;;;;6.85;1.38;;;15.40;99.90;;;;;;5071802;28;20389;-39
2023/10/05 03:02:06;;;;;;;5.80;1.40;;;15.40;99.90;;;;;;5073485;28;20123;-40
2023/10/05 03:04:44;;;;;;;3.78;1.23;;;15.40;99.90;;;;;;5072217;28;20504;-38
2023/10/05 03:07:19;;;;;;;6.25;1.10;;;15.40;99.90;;;;;;5073155;28;20029;-40
2023/10/05 03:09:46;;;;;;;5.97;1.20;;;15.40;99.90;;;;;;5072232;28;20024;-38
2023/10/05 03:12:13;;;;;;;4.75;1.45;;;15.40;99.90;;;;;;5073076;28;20021;-40
2023/10/05 03:14:45;;;;;;;6.35;1.40;;;15.40;99.90;;;;;;5072989;28;20020;-38
2023/10/05 03:17:18;;;;;;;7.43;1.45;;;15.40;99.90;;;;;;5070828;28;20044;-39
2023/10/05 03:19:44;;;;;;;8.60;1.48;;;15.40;99.90;;;;;;5071861;28;20026;-40
2023/10/05 03:22:12;;;;;;;3.40;1.17;;;15.30;99.90;;;;;;5072958;28;20028;-39
2023/10/05 03:24:38;;;;;;;6.00;1.55;;;15.30;99.90;;;;;;5072645;28;20025;-38
2023/10/05 03:27:05;;;;;;;5.28;1.42;;;15.30;99.90;;;;;;5071880;28;20032;-37
2023/10/05 03:29:35;;;;;;;6.95;1.25;;;15.30;99.90;;;;;;5072772;28;20039;-39
2023/10/05 03:34:34;;;;;;;8.07;1.17;;;15.30;99.90;;;;;;5071898;28;20135;-39
2023/10/05 03:37:13;;;;;;;7.10;1.20;;;15.30;99.90;;;;;;5073144;28;20594;-41
2023/10/05 03:40:20;;;;;;;3.78;1.55;;;15.20;99.90;;;;;;5072810;28;20132;-38
2023/10/05 03:42:34;;;;;;;2.38;1.13;;;15.20;99.90;;;;;;5065925;28;20025;-36
2023/10/05 03:45:32;;;;;;;4.30;1.13;;;15.20;99.90;;;;;;5071623;28;20108;-41
2023/10/05 03:47:53;;;;;;;11.57;1.20;;;15.20;99.90;;;;;;5070806;28;20068;-39
2023/10/05 03:50:19;;;;;;;;;;;15.10;99.90;;;;;;5071851;28;20025;-39
2023/10/05 03:52:45;;;;;;;5.75;2.08;;;15.10;99.90;;;;;;5072738;28;19915;-37
2023/10/05 03:55:11;;;;;;;6.35;1.40;;;15.10;99.90;;;;;;5069923;28;20556;-42
2023/10/05 03:57:41;;;;;;;2.58;1.25;;;15.00;99.90;;;;;;5072915;28;20099;-39
2023/10/05 04:00:23;;;;;;;2.85;1.40;;;15.10;99.90;;;;;;5072402;28;20055;-39
2023/10/05 04:02:50;;;;;;;4.10;0.98;;;15.00;99.90;;;;;;5071793;28;20025;-39
2023/10/05 04:05:20;;;;;;;6.88;1.42;;;15.00;99.90;;;;;;5070449;28;20024;-39
2023/10/05 04:07:52;;;;;;;7.70;1.77;;;15.00;99.90;;;;;;5090509;28;20039;-38
2023/10/05 04:10:28;;;;;;;8.00;1.38;;;15.00;99.90;;;;;;5092773;28;20027;-38
2023/10/05 04:12:55;;;;;;;5.10;1.45;;;14.90;99.90;;;;;;5076966;28;20388;-40
2023/10/05 04:15:20;;;;;;;3.78;1.48;;;15.00;99.90;;;;;;5075409;28;20027;-38
2023/10/05 04:17:50;;;;;;;5.78;1.55;;;14.90;99.90;;;;;;5095826;28;20047;-37
2023/10/05 04:20:22;;;;;;;6.28;1.73;;;14.90;99.90;;;;;;5081416;28;20016;-38
2023/10/05 04:22:49;;;;;;;4.88;1.02;;;14.90;99.90;;;;;;5076347;28;20099;-38
2023/10/05 04:25:16;;;;;;;4.60;1.45;;;14.90;99.90;;;;;;5075685;28;20028;-38
2023/10/05 04:27:48;;;;;;;7.30;1.80;;;14.80;99.90;;;;;;5076065;28;20036;-39
2023/10/05 04:30:21;;;;;;;5.10;1.52;;;14.90;99.90;;;;;;5076018;28;20112;-38
2023/10/05 04:32:46;;;;;;;6.95;1.55;;;14.90;99.90;;;;;;5076150;28;20035;-39
2023/10/05 04:35:28;;;;;;;9.70;1.50;;;14.80;99.90;;;;;;5074672;28;20028;-42
2023/10/05 04:37:54;;;;;;;6.95;1.23;;;14.80;99.90;;;;;;5075537;28;20021;-38
2023/10/05 04:40:23;;;;;;;3.22;1.33;;;14.80;99.90;;;;;;5075901;28;20487;-41
2023/10/05 04:42:50;;;;;;;4.10;1.63;;;14.80;99.90;;;;;;5075500;28;20020;-40
2023/10/05 04:45:17;;;;;;;6.57;1.33;;;14.80;99.90;;;;;;5074833;28;20028;-38
2023/10/05 04:47:44;;;;;;;8.35;1.20;;;14.80;99.90;;;;;;5075450;28;20054;-38
2023/10/05 04:50:17;;;;;;;;;;;14.80;99.90;;;;;;5074651;28;20075;-38
2023/10/05 04:52:50;;;;;;;3.38;1.20;;;14.80;99.90;;;;;;5075414;28;19904;-40
2023/10/05 04:55:23;;;;;;;8.80;1.30;;;14.80;99.90;;;;;;5074315;28;20109;-52
2023/10/05 04:57:55;;;;;;;2.90;0.98;;;14.80;99.90;;;;;;5075423;28;20020;-53
2023/10/05 05:08:22;;;;;;;5.57;1.92;;;14.80;99.90;;;;;;5074828;28;20036;-53
2023/10/05 05:10:48;;;;;;;3.22;1.40;;;14.80;99.90;;;;;;5075381;28;20028;-53
2023/10/05 05:13:14;;;;;;;5.50;1.45;;;14.80;99.90;;;;;;5074624;28;20100;-53
2023/10/05 05:15:39;;;;;;;4.10;1.35;;;14.80;99.90;;;;;;5074043;28;20052;-50
2023/10/05 05:18:08;;;;;;;6.95;1.73;;;14.80;99.90;;;;;;5075352;28;20070;-50
2023/10/05 05:20:33;;;;;;;5.07;1.35;;;14.80;99.90;;;;;;5073977;28;20021;-53
2023/10/05 05:22:59;;;;;;;4.43;1.52;;;14.80;99.90;;;;;;5074039;28;20099;-49
2023/10/05 05:25:25;;;;;;;7.03;1.48;;;14.80;99.90;;;;;;5074379;28;20477;-53
2023/10/05 05:27:50;;;;;;;6.55;2.42;;;14.80;99.90;;;;;;5075093;28;20039;-53
2023/10/05 05:30:25;;;;;;;7.43;1.73;;;14.80;99.90;;;;;;5074876;28;20032;-51
2023/10/05 05:32:53;;;;;;;2.83;1.45;;;14.80;99.90;;;;;;5074942;28;20481;-52
2023/10/05 05:35:19;;;;;;;6.05;1.25;;;14.80;99.90;;;;;;5072597;28;20071;-39
2023/10/05 05:37:45;;;;;;;8.85;1.80;;;14.80;99.90;;;;;;5074969;28;20461;-38
2023/10/05 05:40:12;;;;;;;4.65;1.48;;;14.80;99.90;;;;;;5074790;28;20051;-38
2023/10/05 05:42:39;;;;;;;5.82;1.65;;;14.80;99.90;;;;;;5074828;28;20066;-38
2023/10/05 05:45:15;;;;;;;3.85;2.03;;;14.80;99.90;;;;;;5074130;28;20031;-39
2023/10/05 05:47:42;;;;;;;7.30;1.23;;;14.80;99.90;;;;;;5073604;28;20480;-41
2023/10/05 05:50:08;;;;;;;4.65;1.48;;;14.80;99.90;;;;;;5074296;28;20107;-38
2023/10/05 05:52:34;;;;;;;11.88;1.92;;;14.80;99.90;;;;;;5073751;28;20511;-40
2023/10/05 05:55:09;;;;;;;10.55;1.50;;;14.70;99.90;;;;;;5073542;28;20024;-37
2023/10/05 05:57:35;;;;;;;5.93;1.80;;;14.70;99.90;;;;;;5074374;28;20024;-39
2023/10/05 06:00:10;;;;;;;7.63;1.75;;;14.70;99.90;;;;;;5073614;28;20362;-40
2023/10/05 06:02:39;;;;;;;3.88;1.73;;;14.80;99.90;;;;;;5073237;28;20036;-38
2023/10/05 06:05:08;;;;;;;4.40;1.50;;;14.80;99.90;;;;;;5074071;28;20388;-37
2023/10/05 06:07:42;;;;;;;6.60;2.33;;;14.80;99.90;;;;;;5074552;28;20086;-37
2023/10/05 06:10:12;;;;;;;8.02;1.70;;;14.80;99.90;;;;;;5074302;28;20055;-38
2023/10/05 06:12:42;;;;;;;6.22;1.67;;;14.80;99.90;;;;;;5073194;28;20058;-38
2023/10/05 06:15:14;;;;;;;7.32;1.67;;;14.80;99.90;;;;;;5073379;28;20020;-43
2023/10/05 06:17:41;;;;;;;4.70;1.20;;;14.80;99.90;;;;;;5070722;28;20052;-38
2023/10/05 06:20:13;;;;;;;8.45;1.92;;;14.80;99.90;;;;;;5074082;28;20025;-39
2023/10/05 06:22:47;;;;;;;8.10;1.70;;;14.80;99.90;;;;;;5060040;28;20457;-38
2023/10/05 06:25:17;;;;;;;5.82;1.85;;;14.80;99.90;;;;;;5072956;28;20032;-41
2023/10/05 06:27:44;;;;;;;7.65;1.50;;;14.80;99.90;;;;;;5073942;28;20032;-40
2023/10/05 06:30:14;;;;;;;9.05;1.60;;;14.80;99.90;;;;;;5073858;28;20104;-38
2023/10/05 06:32:42;;;;;;;10.77;1.30;;;14.90;99.90;;;;;;5072592;28;20032;-38
2023/10/05 06:35:08;;;;;;;5.13;1.27;;;14.90;99.90;;;;;;5073308;28;20031;-39
2023/10/05 06:37:48;;;;;;;2.03;1.52;;;14.90;99.90;;;;;;5069712;28;20397;-39
2023/10/05 06:40:21;;;;;;;9.48;3.08;;;14.90;99.90;;;;;;5069532;28;20078;-38
2023/10/05 06:42:49;;;;;;;4.78;1.50;;;15.00;99.90;;;;;;5064512;28;20381;-38
2023/10/05 06:45:16;;;;;;;2.85;1.35;;;15.00;99.90;;;;;;5072637;28;20505;-38
2023/10/05 06:47:41;;;;;;;10.90;1.95;;;15.00;99.90;;;;;;5056152;28;20360;-50
2023/10/05 06:50:08;;;;;;;5.78;2.50;;;15.10;99.90;;;;;;5062535;28;20082;-53
2023/10/05 06:52:39;;;;;;;12.25;2.22;;;15.10;99.90;;;;;;5072309;28;20016;-52
2023/10/05 06:55:07;;;;;;;14.70;2.33;;;15.10;99.90;;;;;;5072911;28;20126;-52
2023/10/05 06:57:37;;;;;;;5.88;1.95;;;15.10;99.90;;;;;;5072809;28;20048;-53
2023/10/05 07:00:16;;;;;;;4.03;1.45;;;15.10;99.90;;;;;;5073071;28;20012;-54
2023/10/05 07:02:43;;;;;;;3.03;1.67;;;15.10;99.90;;;;;;5070669;28;20031;-50
2023/10/05 07:05:09;;;;;;;7.15;1.77;;;15.20;99.90;;;;;;5073244;28;20542;-51
2023/10/05 07:07:36;;;;;;;8.00;2.17;;;15.10;99.90;;;;;;5073050;28;20074;-54
2023/10/05 07:10:03;;;;;;;8.90;1.98;;;15.20;99.90;;;;;;5073025;28;20040;-53
2023/10/05 07:12:41;;;;;;;4.00;1.38;;;15.20;99.90;;;;;;5073215;28;20043;-54
2023/10/05 07:15:08;;;;;;;3.03;1.50;;;15.20;99.90;;;;;;5073263;28;20029;-53
2023/10/05 07:17:34;;;;;;;4.63;1.33;;;15.20;99.90;;;;;;5072947;28;20037;-53
2023/10/05 07:19:59;;;;;;;5.70;2.35;;;15.20;99.90;;;;;;5070852;28;20122;-53
2023/10/05 07:22:25;;;;;;;4.75;1.67;;;15.30;99.90;;;;;;5073025;28;20024;-53
2023/10/05 07:24:51;;;;;;;3.38;1.80;;;15.30;99.90;;;;;;5072913;28;20036;-52
2023/10/05 07:27:17;;;;;;;9.40;1.58;;;15.30;99.90;;;;;;5072930;28;20500;-50
2023/10/05 07:29:45;;;;;;;7.13;1.90;;;15.40;99.90;;;;;;5072957;28;20480;-53
2023/10/05 07:32:14;;;;;;;11.50;2.70;;;15.40;99.90;;;;;;5072727;28;20499;-53
2023/10/05 07:34:41;;;;;;;7.32;1.73;;;15.40;99.90;;;;;;5072804;28;20040;-53
2023/10/05 07:37:10;;;;;;;2.83;1.45;;;15.50;99.90;;;;;;5071912;28;20036;-53
2023/10/05 07:39:42;;;;;;;5.45;1.67;;;15.50;99.90;;;;;;5071583;28;20021;-53
2023/10/05 07:42:09;;;;;;;9.32;1.75;;;15.50;99.90;;;;;;5072849;28;20422;-52
2023/10/05 07:44:36;;;;;;;5.50;1.88;;;15.60;99.90;;;;;;5072756;28;20024;-52
2023/10/05 07:47:02;;;;;;;6.57;1.73;;;15.60;99.90;;;;;;5072263;28;20033;-52
2023/10/05 07:49:28;;;;;;;10.18;1.77;;;15.60;99.90;;;;;;5072588;28;20492;-52
2023/10/05 07:51:53;;;;;;;4.70;1.73;;;15.60;99.90;;;;;;5072596;28;20024;-53
2023/10/05 07:54:20;;;;;;;3.00;1.60;;;15.70;99.90;;;;;;5071805;28;20086;-53
2023/10/05 07:56:46;;;;;;;8.13;1.67;;;15.80;99.90;;;;;;5072518;28;20032;-51
2023/10/05 07:59:14;;;;;;;7.13;2.25;;;15.90;99.90;;;;;;5071291;28;20017;-50
2023/10/05 08:01:40;;;;;;;7.93;1.65;;;15.90;99.90;;;;;;5053202;28;20071;-52
2023/10/05 08:04:07;;;;;;;11.65;2.20;;;16.00;99.90;;;;;;5052384;28;20082;-53
2023/10/05 08:06:38;;;;;;;5.00;1.80;;;16.00;99.90;;;;;;5052880;28;20029;-52
2023/10/05 08:09:05;;;;;;;6.05;1.60;;;16.00;99.90;;;;;;5053357;28;20071;-53
2023/10/05 08:11:32;;;;;;;;;;;16.00;99.90;;;;;;5062897;28;20021;-52
2023/10/05 08:13:58;;;;;;;8.50;1.80;;;16.10;99.90;;;;;;5052953;28;19913;-53
2023/10/05 08:16:23;;;;;;;1.50;1.38;;;16.20;99.90;;;;;;5052095;28;20028;-52
2023/10/05 08:18:49;;;;;;;8.70;2.00;;;16.20;99.90;;;;;;5052482;28;20064;-53
2023/10/05 08:21:15;;;;;;;6.32;1.60;;;16.30;99.90;;;;;;5071834;28;20029;-52
2023/10/05 08:23:40;;;;;;;7.88;1.85;;;16.40;99.90;;;;;;5072268;28;20408;-53
2023/10/05 08:26:07;;;;;;;8.20;1.75;;;16.40;99.90;;;;;;5071796;28;20075;-54
2023/10/05 08:28:33;;;;;;;7.17;1.93;;;16.40;99.90;;;;;;5062950;28;20082;-54
2023/10/05 08:31:05;;;;;;;7.13;2.17;;;16.40;99.90;;;;;;5068202;28;20528;-50
2023/10/05 08:33:34;;;;;;;6.80;1.40;;;16.50;99.90;;;;;;5072155;28;20032;-54
2023/10/05 08:36:06;;;;;;;6.95;1.48;;;16.50;99.90;;;;;;5072246;28;20033;-51
2023/10/05 08:38:33;;;;;;;14.48;1.90;;;16.60;99.90;;;;;;5072269;28;20112;-50
2023/10/05 08:41:01;;;;;;;11.32;2.83;;;16.60;99.90;;;;;;5072166;28;20025;-53
2023/10/05 08:43:27;;;;;;;7.30;1.65;;;16.70;99.90;;;;;;5072437;28;20397;-54
2023/10/05 08:46:01;;;;;;;11.23;2.13;;;16.80;99.90;;;;;;5071331;28;20064;-53
2023/10/05 08:48:28;;;;;;;5.80;1.80;;;16.90;99.90;;;;;;5056944;28;20032;-54
2023/10/05 08:51:04;;;;;;;2.65;1.52;;;16.90;99.90;;;;;;5056382;28;20063;-53
2023/10/05 08:53:30;;;;;;;6.18;2.55;;;17.00;99.90;;;;;;5071991;28;20027;-53
2023/10/05 08:55:59;;;;;;;11.98;1.55;;;17.10;99.90;;;;;;5072379;28;20469;-51
2023/10/05 08:58:28;;;;;;;5.70;2.13;;;17.10;99.90;;;;;;5073426;28;20032;-56
2023/10/05 09:00:58;;;;;;;7.32;1.88;;;17.10;99.90;;;;;;5075514;28;20112;-49
2023/10/05 09:03:30;;;;;;;4.82;1.23;;;17.00;99.90;;;;;;5075619;28;20541;-50
2023/10/05 09:11:31;;;;;;;7.70;1.40;;;16.90;99.90;;;;;;5055442;28;20025;-51
2023/10/05 09:14:52;;;;;;;6.22;1.48;;;16.80;99.90;;;;;;5055176;28;20035;-53
2023/10/05 09:16:55;;;;;;;9.00;1.58;;;16.80;99.90;;;;;;5047764;28;20033;-56
2023/10/05 09:19:33;;;;;;;11.45;2.45;;;16.80;99.90;;;;;;5066227;28;20025;-53
2023/10/05 09:24:29;;;;;;;4.65;1.60;;;16.90;99.90;;;;;;5075134;28;20500;-50
2023/10/05 09:27:14;;;;;;;7.15;2.17;;;16.90;99.90;;;;;;5073953;28;20028;-52
2023/10/05 09:29:41;;;;;;;4.25;1.70;;;16.90;99.90;;;;;;5066395;28;20539;-54
2023/10/05 09:32:21;;;;;;;4.60;1.08;;;16.90;99.90;;;;;;5071967;28;20445;-54
2023/10/05 09:34:49;;;;;;;3.80;1.27;;;16.90;99.90;;;;;;5075085;28;20036;-53
2023/10/05 09:37:16;;;;;;;2.97;1.17;;;17.00;99.90;;;;;;5073983;28;20112;-52
2023/10/05 09:39:44;;;;;;;5.85;1.38;;;17.00;99.90;;;;;;5074469;28;20062;-54
2023/10/05 09:42:33;;;;;;;;;;;17.10;99.90;;;;;;5075605;28;20443;-53
2023/10/05 09:45:08;;;;;;;4.22;1.23;;;17.10;99.90;;;;;;5074780;28;19935;-53
2023/10/05 09:47:35;;;;;;;6.50;1.63;;;17.20;99.90;;;;;;5055330;28;20029;-53
2023/10/05 09:50:10;;;;;;;11.38;1.60;;;17.20;99.90;;;;;;5054732;28;20040;-53
2023/10/05 09:52:37;;;;;;;8.73;1.13;;;17.20;99.90;;;;;;5072633;28;20491;-53
2023/10/05 09:55:05;;;;;;;6.82;1.73;;;17.30;99.90;;;;;;5073798;28;20089;-54
2023/10/05 09:57:51;;;;;;;2.95;0.90;;;17.30;99.90;;;;;;5074861;28;20469;-53
2023/10/05 10:02:58;;;;;;;5.22;1.20;;;17.40;99.90;;;;;;5074754;28;20033;-39
2023/10/05 10:05:29;;;;;;;4.80;2.40;;;17.40;99.90;;;;;;5074439;28;20044;-39
2023/10/05 10:08:07;;;;;;;9.00;2.17;;;17.50;99.90;;;;;;5074675;28;20025;-40
2023/10/05 10:10:33;;;;;;;6.68;1.88;;;17.50;99.90;;;;;;5072967;28;20039;-40
2023/10/05 10:13:00;;;;;;;5.82;2.63;;;17.50;99.90;;;;;;5073382;28;20028;-39
2023/10/05 10:15:33;;;;;;;6.38;1.63;;;17.60;99.90;;;;;;5074461;28;20033;-38
2023/10/05 10:18:15;;;;;;;8.65;1.35;;;17.70;99.90;;;;;;5073937;28;20040;-42
2023/10/05 10:20:48;;;;;;;7.15;1.58;;;17.70;99.90;;;;;;5072831;28;20531;-39
2023/10/05 10:23:21;;;;;;;8.77;1.60;;;17.70;99.90;;;;;;5068026;28;20021;-38
2023/10/05 10:25:50;;;;;;;5.05;1.38;;;17.80;99.90;;;;;;5060883;28;20025;-40
2023/10/05 10:28:20;;;;;;;5.07;1.48;;;17.80;99.90;;;;;;5072602;28;20029;-44
2023/10/05 10:31:11;;;;;;;6.03;1.83;;;17.90;99.90;;;;;;5066373;28;20029;-40
2023/10/05 10:33:37;;;;;;;6.20;1.35;;;17.90;99.90;;;;;;5068648;28;20047;-39
2023/10/05 10:36:06;;;;;;;7.18;1.60;;;17.90;99.90;;;;;;5067661;28;20025;-40
2023/10/05 10:38:32;;;;;;;7.78;1.80;;;17.90;99.90;;;;;;5068855;28;20040;-48
2023/10/05 10:41:07;;;;;;;4.90;1.20;;;18.10;99.90;;;;;;5065165;28;20032;-48
2023/10/05 10:43:33;;;;;;;6.10;1.10;;;18.10;99.90;;;;;;5063991;28;20509;-53
2023/10/05 10:46:13;;;;;;;12.73;1.40;;;18.20;99.90;;;;;;5062984;28;20023;-51
2023/10/05 10:48:53;;;;;;;11.85;1.40;;;18.30;99.90;;;;;;5065105;28;20448;-41
2023/10/05 10:51:21;;;;;;;9.52;1.92;;;18.40;99.90;;;;;;5064094;28;20700;-49
2023/10/05 10:53:52;;;;;;;6.32;1.60;;;18.40;99.90;;;;;;5065034;28;20115;-48
2023/10/05 10:56:27;;;;;;;12.63;2.30;;;18.40;99.90;;;;;;5063485;28;20519;-50
2023/10/05 10:59:09;;;;;;;6.43;1.52;;;18.30;99.90;;;;;;5064164;28;20406;-54
2023/10/05 11:01:42;;;;;;;10.00;2.03;;;18.20;99.90;;;;;;5063232;28;20568;-47
2023/10/05 11:04:23;;;;;;;6.28;2.15;;;18.20;99.90;;;;;;5064668;28;20032;-54
2023/10/05 11:06:51;;;;;;;7.70;1.35;;;18.20;99.90;;;;;;5061619;28;20412;-50
2023/10/05 11:09:24;;;;;;;6.28;1.65;;;18.20;99.90;;;;;;5064214;28;20025;-52
2023/10/05 11:11:50;;;;;;;8.77;1.58;;;18.20;99.90;;;;;;5064776;28;20032;-54
2023/10/05 11:14:21;;;;;;;8.15;2.50;;;18.30;99.90;;;;;;5065008;28;20033;-39
2023/10/05 11:16:59;;;;;;;12.00;1.80;;;18.20;99.90;;;;;;5063994;28;20028;-39
2023/10/05 11:19:37;;;;;;;7.97;1.63;;;18.20;99.90;;;;;;5064286;28;20051;-39
2023/10/05 11:22:11;;;;;;;3.35;1.77;;;18.20;99.90;;;;;;5063691;28;20020;-39
2023/10/05 11:25:14;;;;;;;5.93;1.80;;;18.20;99.90;;;;;;5063816;28;20468;-41
2023/10/05 11:27:54;;;;;;;5.20;1.50;;;18.10;99.90;;;;;;5062178;28;20052;-40
2023/10/05 11:30:21;;;;;;;3.63;1.15;;;18.10;99.90;;;;;;5073262;28;20025;-38
2023/10/05 11:32:56;;;;;;;11.40;1.40;;;18.10;99.90;;;;;;5062856;28;20085;-39
2023/10/05 11:35:29;;;;;;;8.40;1.77;;;18.10;99.90;;;;;;5061779;28;20060;-39
2023/10/05 11:37:59;;;;;;;8.25;1.45;;;18.10;99.90;;;;;;5062854;28;20489;-41
2023/10/05 11:40:34;;;;;;;8.95;1.83;;;18.10;99.90;;;;;;5063967;28;20070;-39
2023/10/05 11:43:13;;;;;;;7.18;1.60;;;18.10;99.90;;;;;;5060882;28;20074;-40
2023/10/05 11:45:53;;;;;;;6.68;1.55;;;18.20;99.90;;;;;;5063181;28;20083;-39
2023/10/05 11:48:20;;;;;;;6.22;1.30;;;18.30;99.90;;;;;;5064801;28;20028;-39
2023/10/05 11:50:52;;;;;;;4.45;1.52;;;18.40;99.90;;;;;;5063058;28;20026;-39
2023/10/05 11:53:23;;;;;;;4.72;1.60;;;18.40;99.90;;;;;;5063353;28;20488;-41
2023/10/05 11:55:50;;;;;;;7.70;1.67;;;18.40;99.90;;;;;;5063902;28;20501;-40
2023/10/05 11:58:17;;;;;;;3.77;1.47;;;18.50;99.90;;;;;;5065002;28;20120;-41
2023/10/05 12:00:44;;;;;;;5.75;1.77;;;18.50;99.90;;;;;;5063611;28;20623;-41
2023/10/05 12:03:11;;;;;;;8.88;1.83;;;18.50;99.90;;;;;;5063097;28;20029;-43
2023/10/05 12:05:38;;;;;;;7.28;1.60;;;18.60;99.90;;;;;;5064468;28;20066;-43
2023/10/05 12:08:05;;;;;;;7.82;1.63;;;18.60;99.90;;;;;;5061764;28;20551;-39
2023/10/05 12:10:32;;;;;;;5.03;1.10;;;18.60;99.90;;;;;;5063828;28;20039;-39
2023/10/05 12:13:02;;;;;;;4.53;1.60;;;18.70;99.90;;;;;;5062620;28;20026;-39
2023/10/05 12:15:28;;;;;;;7.25;1.52;;;18.70;99.90;;;;;;5045821;28;20029;-39
2023/10/05 12:17:54;;;;;;;7.00;1.20;;;18.70;99.90;;;;;;5062698;28;20094;-40
2023/10/05 12:20:21;;;;;;;5.50;1.10;;;18.60;99.90;;;;;;5064692;28;20429;-40
2023/10/05 12:22:49;;;;;;;4.68;1.02;;;18.60;99.90;;;;;;5064707;28;20067;-40
2023/10/05 12:25:24;;;;;;;3.72;1.20;;;18.60;99.90;;;;;;5062491;28;20397;-40
2023/10/05 12:27:50;;;;;;;4.05;1.63;;;18.60;99.90;;;;;;5062732;28;20557;-42
2023/10/05 12:30:16;;;;;;;4.82;1.50;;;18.70;99.90;;;;;;5060579;28;20123;-44
2023/10/05 12:32:42;;;;;;;6.43;1.90;;;18.60;99.90;;;;;;5072239;28;20032;-42
2023/10/05 12:35:16;;;;;;;6.57;1.40;;;18.60;99.90;;;;;;5067671;28;20025;-40
2023/10/05 12:37:47;;;;;;;13.98;1.73;;;18.60;99.90;;;;;;5066692;28;20128;-38
2023/10/05 12:40:18;;;;;;;6.18;1.42;;;18.70;99.90;;;;;;5067162;28;20056;-41
2023/10/05 12:42:51;;;;;;;6.28;1.20;;;18.70;99.90;;;;;;5063329;28;20439;-41
2023/10/05 12:45:22;;;;;;;6.25;1.55;;;18.80;99.90;;;;;;5066571;28;20497;-41
2023/10/05 12:47:55;;;;;;;8.05;1.35;;;18.80;99.90;;;;;;5070182;28;20031;-40
2023/10/05 12:50:29;;;;;;;3.30;1.02;;;18.90;99.90;;;;;;5075602;28;20035;-38
2023/10/05 12:52:56;;;;;;;3.75;1.38;;;19.10;99.90;;;;;;5062288;28;20028;-39
2023/10/05 12:55:23;;;;;;;11.65;1.80;;;19.30;99.90;;;;;;5075857;28;20020;-45
2023/10/05 12:57:52;;;;;;;6.13;0.97;;;19.60;99.90;;;;;;5074413;28;20519;-39
2023/10/05 13:00:27;;;;;;;9.05;1.40;;;19.90;99.90;;;;;;5074827;28;20017;-40
2023/10/05 13:02:54;;;;;;;3.58;1.02;;;20.20;99.90;;;;;;5065176;28;20024;-39
2023/10/05 13:05:21;;;;;;;4.90;1.30;;;20.40;99.90;;;;;;5074856;28;20025;-40
2023/10/05 13:07:48;;;;;;;3.97;1.60;;;20.50;99.90;;;;;;5075920;28;20259;-39
2023/10/05 13:10:21;;;;;;;6.30;1.48;;;20.40;99.90;;;;;;5075770;28;20033;-37
2023/10/05 13:12:51;;;;;;;6.07;1.48;;;20.30;99.90;;;;;;5075699;28;20029;-39
2023/10/05 13:15:19;;;;;;;3.25;1.30;;;20.00;99.90;;;;;;5075322;28;20115;-41
2023/10/05 13:17:47;;;;;;;1.77;1.42;;;19.80;99.90;;;;;;5076836;28;20508;-42
2023/10/05 13:20:23;;;;;;;;;;;19.60;99.90;;;;;;5067056;28;20070;-40
2023/10/05 13:22:49;;;;;;;2.67;1.42;;;19.40;99.90;;;;;;5055626;28;19908;-39
2023/10/05 13:25:15;;;;;;;2.90;1.30;;;19.30;99.90;;;;;;5073765;28;20389;-39
2023/10/05 13:27:42;;;;;;;7.38;1.83;;;19.40;99.90;;;;;;5075193;28;20099;-38
2023/10/05 13:30:09;;;;;;;12.38;3.00;;;19.40;99.90;;;;;;5075135;28;20025;-39
2023/10/05 13:32:34;;;;;;;7.22;1.90;;;19.40;99.90;;;;;;5065661;28;20029;-39